Time;durP1;ratioP1;P1;durP2;ratioP2;P2;SDS_P1;SDS_P2;PMS_P1;PMS_P2;Temp;Humidity;BMP_temperature;BMP_pressure;BME280_temperature;BME280_humidity;BME280_pressure;Samples;Min_cycle;Max_cycle;Signal;HPM_P1;HPM_P2
2021/01/16 00:01:08;;;;;;;21.90;11.15;;;;;;;0.33;36.70;100206.10;1780725;80;21090;-77
2021/01/16 00:03:36;;;;;;;25.37;11.80;;;;;;;0.34;36.77;100201.20;1780751;80;21193;-77
2021/01/16 00:06:05;;;;;;;24.70;12.20;;;;;;;0.35;36.98;100203.36;1780637;80;21202;-77
2021/01/16 00:08:33;;;;;;;22.35;11.03;;;;;;;0.37;37.20;100201.48;1780558;80;21805;-77
2021/01/16 00:11:01;;;;;;;30.10;13.38;;;;;;;0.38;37.25;100201.38;1780480;80;21135;-75
2021/01/16 00:13:34;;;;;;;29.42;13.30;;;;;;;0.39;37.30;100198.27;1780627;80;21704;-77
2021/01/16 00:16:04;;;;;;;23.18;12.40;;;;;;;0.38;37.35;100197.90;1780250;80;21160;-78
2021/01/16 00:18:32;;;;;;;30.02;14.68;;;;;;;0.36;37.30;100191.86;1780334;80;21188;-78
2021/01/16 00:21:00;;;;;;;29.37;13.18;;;;;;;0.34;37.44;100185.39;1780736;80;22086;-77
2021/01/16 00:23:29;;;;;;;26.75;13.95;;;;;;;0.36;37.59;100195.34;1780469;80;21663;-75
2021/01/16 00:25:57;;;;;;;26.17;13.00;;;;;;;0.39;37.65;100187.72;1780806;80;21150;-76
2021/01/16 00:28:29;;;;;;;21.15;11.65;;;;;;;0.45;37.63;100193.42;1780968;80;21105;-78
2021/01/16 00:31:01;;;;;;;27.70;13.95;;;;;;;0.47;37.62;100180.17;1780987;80;21177;-77
2021/01/16 00:33:32;;;;;;;22.22;11.28;;;;;;;0.48;37.75;100184.02;1782048;80;22219;-76
2021/01/16 00:36:02;;;;;;;21.07;11.53;;;;;;;0.52;37.81;100183.82;1782169;80;21121;-77
2021/01/16 00:38:30;;;;;;;26.17;12.47;;;;;;;0.52;37.76;100185.14;1781764;80;21569;-76
2021/01/16 00:40:58;;;;;;;32.80;13.08;;;;;;;0.53;37.90;100185.50;1781005;80;21460;-77
2021/01/16 00:43:26;;;;;;;24.12;11.70;;;;;;;0.54;37.86;100191.14;1780678;80;21184;-76
2021/01/16 00:45:54;;;;;;;20.55;10.93;;;;;;;0.58;37.76;100185.56;1780801;80;21802;-76
2021/01/16 00:48:23;;;;;;;17.67;10.65;;;;;;;0.58;37.81;100185.56;1780517;80;21596;-77
2021/01/16 00:50:54;;;;;;;25.05;11.85;;;;;;;0.58;37.71;100183.41;1780745;80;21173;-76
2021/01/16 00:53:25;;;;;;;16.07;8.25;;;;;;;0.59;37.59;100182.45;1779628;80;21240;-77
2021/01/16 00:56:00;;;;;;;21.73;11.95;;;;;;;0.63;37.50;100182.63;1780980;80;21125;-75
2021/01/16 00:58:29;;;;;;;21.30;11.28;;;;;;;0.59;37.48;100179.81;1780746;80;21804;-78
2021/01/16 01:00:59;;;;;;;23.27;10.05;;;;;;;0.57;37.53;100182.56;1786409;79;21219;-77
2021/01/16 01:03:29;;;;;;;20.08;11.03;;;;;;;0.58;37.40;100176.34;1812428;79;21138;-76
2021/01/16 01:05:57;;;;;;;22.60;11.78;;;;;;;0.56;37.33;100184.00;1806851;79;21193;-76
2021/01/16 01:08:30;;;;;;;22.27;11.30;;;;;;;0.54;37.44;100174.01;1767254;80;21183;-77
2021/01/16 01:10:58;;;;;;;23.10;11.63;;;;;;;0.60;37.38;100175.78;1773465;80;21561;-76
2021/01/16 01:13:26;;;;;;;21.35;11.30;;;;;;;0.61;37.49;100181.89;1761681;81;21213;-76
2021/01/16 01:15:54;;;;;;;20.35;10.55;;;;;;;0.63;37.36;100181.30;1762104;81;21606;-77
2021/01/16 01:18:22;;;;;;;26.37;11.30;;;;;;;0.63;37.37;100173.40;1761907;81;21194;-77
2021/01/16 01:20:50;;;;;;;21.17;10.65;;;;;;;0.58;37.46;100164.48;1761980;81;21205;-77
2021/01/16 01:23:18;;;;;;;22.42;11.15;;;;;;;0.59;37.49;100171.91;1762051;81;21373;-77
2021/01/16 01:25:45;;;;;;;20.72;10.55;;;;;;;0.61;37.51;100168.72;1761802;81;21213;-78
2021/01/16 01:28:13;;;;;;;21.17;10.93;;;;;;;0.65;37.45;100169.73;1761684;81;21480;-78
2021/01/16 01:30:41;;;;;;;26.45;10.85;;;;;;;0.66;37.40;100166.14;1761925;81;21162;-77
2021/01/16 01:33:16;;;;;;;27.20;12.40;;;;;;;0.68;37.44;100168.66;1761868;81;21079;-77
2021/01/16 01:35:44;;;;;;;19.87;10.32;;;;;;;0.71;37.44;100168.47;1762054;81;21789;-76
2021/01/16 01:38:17;;;;;;;19.48;9.50;;;;;;;0.73;37.41;100166.11;1761942;81;21162;-77
2021/01/16 01:40:45;;;;;;;26.12;10.93;;;;;;;0.74;37.38;100170.91;1762103;81;21134;-76
2021/01/16 01:43:14;;;;;;;21.87;9.63;;;;;;;0.75;37.33;100167.32;1761962;81;21189;-78
2021/01/16 01:45:42;;;;;;;23.22;12.10;;;;;;;0.75;37.15;100170.80;1762165;81;21194;-77
2021/01/16 01:48:10;;;;;;;22.40;10.60;;;;;;;0.72;37.13;100164.88;1761770;81;21342;-77
2021/01/16 01:50:39;;;;;;;23.55;12.73;;;;;;;0.72;37.25;100167.52;1761648;81;21189;-77
2021/01/16 01:53:07;;;;;;;24.52;12.05;;;;;;;0.71;37.34;100163.20;1761950;81;21071;-76
2021/01/16 01:55:35;;;;;;;20.90;11.75;;;;;;;0.71;37.42;100163.20;1732099;81;21194;-76
2021/01/16 01:58:05;;;;;;;22.13;11.80;;;;;;;0.74;37.47;100160.37;1759265;81;21676;-75
2021/01/16 02:00:33;;;;;;;21.75;11.25;;;;;;;0.78;37.42;100167.13;1730983;81;21357;-77
2021/01/16 02:03:01;;;;;;;23.75;12.60;;;;;;;0.85;37.18;100168.86;1760562;81;21198;-77
2021/01/16 02:05:30;;;;;;;26.05;10.72;;;;;;;0.84;37.15;100170.66;1761287;81;21587;-77
2021/01/16 02:07:59;;;;;;;29.65;13.98;;;;;;;0.84;37.11;100171.97;1761382;81;21649;-77
2021/01/16 02:10:27;;;;;;;29.32;14.07;;;;;;;0.86;37.26;100168.75;1761322;81;21492;-77
2021/01/16 02:12:56;;;;;;;25.05;13.28;;;;;;;0.89;37.26;100165.91;1761673;81;21382;-76
2021/01/16 02:15:37;;;;;;;22.37;12.53;;;;;;;0.93;37.21;100170.03;1761707;81;21182;-76
2021/01/16 02:18:26;;;;;;;26.37;12.88;;;;;;;0.95;37.10;100164.20;1738080;81;21104;-77
2021/01/16 02:20:57;;;;;;;25.15;13.05;;;;;;;0.96;37.01;100171.16;1761794;81;21409;-76
2021/01/16 02:23:33;;;;;;;28.75;15.32;;;;;;;0.98;37.00;100174.52;1762215;81;21639;-77
2021/01/16 02:26:39;;;;;;;31.70;16.12;;;;;;;0.97;37.02;100169.36;1760769;81;21515;-76
2021/01/16 02:29:08;;;;;;;34.15;18.52;;;;;;;0.97;36.95;100172.00;1761136;80;21209;-75
2021/01/16 02:31:41;;;;;;;35.73;16.77;;;;;;;0.95;36.97;100173.88;1742473;81;21232;-76
2021/01/16 02:34:14;;;;;;;30.48;16.62;;;;;;;0.95;36.86;100175.20;1761514;81;21150;-76
2021/01/16 02:37:20;;;;;;;34.30;17.10;;;;;;;0.95;36.92;100181.34;1761659;80;21084;-77
2021/01/16 02:40:15;;;;;;;28.80;13.88;;;;;;;0.97;36.89;100175.48;1761331;80;22618;-77
2021/01/16 02:43:34;;;;;;;27.80;13.38;;;;;;;0.98;36.68;100178.95;1761953;81;21173;-76
2021/01/16 02:46:38;;;;;;;33.38;15.32;;;;;;;0.97;36.61;100179.43;1763745;80;21141;-77
2021/01/16 02:49:35;;;;;;;25.97;12.23;;;;;;;0.97;36.56;100187.82;1789281;80;21149;-78
2021/01/16 02:52:12;;;;;;;29.27;12.35;;;;;;;0.95;36.47;100183.11;1793334;80;21121;-76
2021/01/16 02:54:42;;;;;;;;;;;;;;;0.92;36.47;100180.22;1795271;80;21422;-77
2021/01/16 02:57:11;;;;;;;25.20;14.33;;;;;;;0.91;36.51;100183.81;1793262;80;20242;-77
2021/01/16 02:59:42;;;;;;;28.47;13.72;;;;;;;0.93;36.42;100187.66;1793377;79;21184;-77
2021/01/16 03:02:12;;;;;;;31.85;16.07;;;;;;;0.96;36.25;100184.82;1793359;80;21078;-76
2021/01/16 03:04:40;;;;;;;42.25;19.65;;;;;;;0.98;36.37;100181.11;1793280;79;21164;-76
2021/01/16 03:07:10;;;;;;;37.73;20.35;;;;;;;0.92;36.09;100180.70;1792962;80;21812;-76
2021/01/16 03:09:39;;;;;;;33.50;16.80;;;;;;;0.78;36.23;100173.72;1792902;79;21176;-76
2021/01/16 03:12:08;;;;;;;25.43;14.15;;;;;;;0.69;36.48;100170.38;1793262;79;21378;-77
2021/01/16 03:14:42;;;;;;;27.48;12.80;;;;;;;0.65;36.51;100171.05;1793146;79;21156;-76
2021/01/16 03:17:15;;;;;;;25.55;11.88;;;;;;;0.66;36.59;100173.20;1793146;80;21480;-76
2021/01/16 03:19:48;;;;;;;26.70;13.95;;;;;;;0.70;36.65;100174.70;1793134;79;22016;-76
2021/01/16 03:22:25;;;;;;;25.40;13.55;;;;;;;0.75;36.76;100180.50;1793029;80;21208;-76
2021/01/16 03:24:54;;;;;;;24.17;12.53;;;;;;;0.79;36.79;100179.35;1793427;79;21149;-77
2021/01/16 03:27:23;;;;;;;25.82;12.20;;;;;;;0.84;36.72;100185.16;1793163;80;21164;-76
2021/01/16 03:29:52;;;;;;;26.45;14.40;;;;;;;0.86;36.82;100180.61;1793047;79;21137;-76
2021/01/16 03:32:20;;;;;;;24.50;12.93;;;;;;;0.88;36.72;100174.78;1793239;79;21329;-77
2021/01/16 03:34:49;;;;;;;22.70;12.58;;;;;;;0.92;36.72;100172.79;1793160;79;21177;-77
2021/01/16 03:37:18;;;;;;;23.42;12.70;;;;;;;0.94;36.80;100173.03;1793380;80;21215;-77
2021/01/16 03:39:48;;;;;;;24.40;13.20;;;;;;;0.96;36.89;100173.80;1794067;80;21157;-77
2021/01/16 03:42:15;;;;;;;24.60;12.85;;;;;;;0.98;36.88;100174.52;1794362;79;21180;-78
2021/01/16 03:44:43;;;;;;;25.25;12.63;;;;;;;1.01;36.99;100176.12;1793601;80;21816;-76
2021/01/16 03:47:11;;;;;;;26.50;13.50;;;;;;;1.01;37.03;100176.96;1793351;79;21177;-77
2021/01/16 03:49:39;;;;;;;23.55;13.60;;;;;;;1.03;36.95;100185.23;1793033;79;21515;-78
2021/01/16 03:52:06;;;;;;;28.57;14.70;;;;;;;1.03;37.05;100186.08;1793254;80;21148;-76
2021/01/16 03:54:34;;;;;;;25.75;14.80;;;;;;;1.06;37.12;100187.67;1792954;79;21196;-77
2021/01/16 03:57:05;;;;;;;30.35;16.67;;;;;;;1.09;37.13;100194.04;1793202;79;21793;-77
2021/01/16 03:59:33;;;;;;;32.30;17.20;;;;;;;1.11;37.17;100193.48;1793223;80;21156;-75
2021/01/16 04:02:01;;;;;;;32.40;19.65;;;;;;;1.15;37.32;100191.84;1793324;79;21436;-76
2021/01/16 04:04:29;;;;;;;37.45;19.80;;;;;;;1.17;37.37;100197.00;1793356;80;21148;-76
2021/01/16 04:06:57;;;;;;;36.17;21.57;;;;;;;1.15;37.43;100194.48;1793437;80;21156;-77
2021/01/16 04:09:25;;;;;;;46.48;26.55;;;;;;;1.15;37.49;100195.80;1793170;80;21409;-77
2021/01/16 04:11:53;;;;;;;43.52;26.40;;;;;;;1.16;37.62;100196.16;1793147;80;21180;-77
2021/01/16 04:14:21;;;;;;;40.10;22.65;;;;;;;1.19;37.70;100189.84;1737737;80;21739;-77
2021/01/16 04:16:48;;;;;;;39.15;20.97;;;;;;;1.22;37.61;100189.61;1793251;79;21169;-75
2021/01/16 04:19:16;;;;;;;40.67;22.48;;;;;;;1.22;37.56;100187.82;1792976;79;21188;-76
2021/01/16 04:21:45;;;;;;;29.45;16.48;;;;;;;1.24;37.62;100191.69;1792785;79;22252;-76
2021/01/16 04:24:14;;;;;;;31.33;16.75;;;;;;;1.26;37.70;100187.98;1792959;79;20982;-76
2021/01/16 04:26:42;;;;;;;30.08;15.70;;;;;;;1.28;37.74;100185.26;1792770;80;21137;-76
2021/01/16 04:29:11;;;;;;;33.83;19.40;;;;;;;1.30;37.72;100186.46;1792868;80;21080;-76
2021/01/16 04:31:40;;;;;;;26.48;13.55;;;;;;;1.29;37.78;100182.98;1788262;80;21172;-76
2021/01/16 04:34:08;;;;;;;25.75;14.05;;;;;;;1.32;37.73;100181.47;1780787;80;21374;-77
2021/01/16 04:36:36;;;;;;;31.17;16.12;;;;;;;1.33;37.79;100179.19;1784059;80;21205;-77
2021/01/16 04:39:05;;;;;;;23.00;11.88;;;;;;;1.35;37.91;100185.66;1780787;80;21162;-77
2021/01/16 04:41:35;;;;;;;21.82;12.55;;;;;;;1.35;37.77;100198.38;1783761;80;22223;-79
2021/01/16 04:44:04;;;;;;;24.87;12.82;;;;;;;1.35;38.00;100196.22;1780108;80;21549;-78
2021/01/16 04:46:32;;;;;;;21.65;12.10;;;;;;;1.35;37.91;100183.03;1758402;80;21201;-76
2021/01/16 04:49:04;;;;;;;22.85;13.30;;;;;;;1.38;37.97;100192.91;1763263;80;21408;-75
2021/01/16 04:51:36;;;;;;;26.77;13.98;;;;;;;1.42;38.09;100181.66;1779798;80;21617;-77
2021/01/16 04:54:05;;;;;;;23.75;13.55;;;;;;;1.42;38.05;100179.02;1776994;80;21185;-77
2021/01/16 04:56:35;;;;;;;26.80;14.38;;;;;;;1.46;38.15;100185.78;1779476;80;21198;-77
2021/01/16 04:59:04;;;;;;;26.87;14.47;;;;;;;1.49;38.10;100187.70;1780632;80;21867;-75
2021/01/16 05:01:31;;;;;;;24.45;14.50;;;;;;;1.48;37.94;100182.55;1778359;80;21193;-76
2021/01/16 05:03:59;;;;;;;26.70;14.28;;;;;;;1.42;37.59;100178.55;1781563;80;21198;-77
2021/01/16 05:06:28;;;;;;;26.07;15.28;;;;;;;1.38;37.40;100179.70;1778682;80;21572;-76
2021/01/16 05:08:59;;;;;;;32.05;16.50;;;;;;;1.31;37.30;100181.55;1781579;79;21209;-76
2021/01/16 05:11:34;;;;;;;27.50;16.30;;;;;;;1.29;37.42;100180.34;1765150;79;22252;-77
2021/01/16 05:14:18;;;;;;;25.15;14.90;;;;;;;1.29;37.64;100185.63;1770499;79;21140;-76
2021/01/16 05:16:59;;;;;;;27.90;14.80;;;;;;;1.30;37.93;100201.81;1763811;81;21097;-77
2021/01/16 05:19:30;;;;;;;27.58;17.32;;;;;;;1.33;38.15;100202.09;1767849;79;21186;-76
2021/01/16 05:21:58;;;;;;;29.63;16.85;;;;;;;1.38;38.25;100199.98;1795684;79;21090;-77
2021/01/16 05:24:26;;;;;;;27.85;16.65;;;;;;;1.45;38.29;100201.22;1759803;80;21358;-78
2021/01/16 05:27:01;;;;;;;30.75;15.93;;;;;;;1.50;38.25;100205.26;1772522;80;21141;-76
2021/01/16 05:29:30;;;;;;;26.05;14.23;;;;;;;1.57;38.14;100202.18;1739771;80;21422;-76
2021/01/16 05:32:00;;;;;;;23.40;14.15;;;;;;;1.59;38.13;100206.86;1751936;81;21156;-76
2021/01/16 05:34:30;;;;;;;26.07;15.13;;;;;;;1.60;38.15;100207.26;1786609;79;21116;-78
2021/01/16 05:36:58;;;;;;;29.35;15.95;;;;;;;1.60;38.20;100211.22;1750441;80;21202;-78
2021/01/16 05:39:29;;;;;;;28.25;15.30;;;;;;;1.61;38.21;100214.22;1748921;82;21121;-79
2021/01/16 05:42:04;;;;;;;40.10;21.42;;;;;;;1.61;38.25;100207.14;1755481;80;21106;-76
2021/01/16 05:44:33;;;;;;;48.05;25.43;;;;;;;1.62;38.28;100206.66;1761513;81;21594;-76
2021/01/16 05:47:01;;;;;;;44.73;25.30;;;;;;;1.63;38.32;100203.90;1761687;81;21596;-76
2021/01/16 05:49:29;;;;;;;44.85;25.40;;;;;;;1.68;38.21;100208.41;1760381;81;21384;-76
2021/01/16 05:51:58;;;;;;;54.42;26.40;;;;;;;1.73;38.19;100214.69;1792358;80;21117;-78
2021/01/16 05:54:29;;;;;;;39.98;21.10;;;;;;;1.71;38.11;100218.73;1787574;80;21221;-78
2021/01/16 05:56:58;;;;;;;45.20;22.32;;;;;;;1.71;38.22;100223.17;1779318;79;21228;-77
2021/01/16 05:59:28;;;;;;;41.53;20.27;;;;;;;1.71;38.35;100215.25;1744066;80;21190;-76
2021/01/16 06:01:55;;;;;;;43.35;20.97;;;;;;;1.69;38.45;100221.13;1789960;79;21430;-78
2021/01/16 06:04:23;;;;;;;42.27;21.02;;;;;;;1.70;38.59;100225.45;1726451;80;21256;-75
2021/01/16 06:07:06;;;;;;;38.73;20.05;;;;;;;1.69;38.58;100218.49;1768736;80;21176;-76
2021/01/16 06:09:36;;;;;;;40.83;20.15;;;;;;;1.72;38.76;100226.17;1767127;80;21533;-76
2021/01/16 06:12:06;;;;;;;30.95;16.80;;;;;;;1.73;38.84;100230.05;1758773;80;21205;-77
2021/01/16 06:14:43;;;;;;;36.98;18.25;;;;;;;1.73;38.92;100228.73;1792520;79;21386;-76
2021/01/16 06:17:16;;;;;;;33.25;18.32;;;;;;;1.72;38.88;100242.02;1788275;79;21185;-77
2021/01/16 06:19:49;;;;;;;36.33;19.15;;;;;;;1.71;39.04;100238.54;1757095;80;21124;-76
2021/01/16 06:22:17;;;;;;;29.18;17.25;;;;;;;1.73;39.11;100243.73;1765613;80;21137;-77
2021/01/16 06:24:48;;;;;;;31.37;16.48;;;;;;;1.74;39.18;100249.38;1760759;80;21114;-75
2021/01/16 06:27:24;;;;;;;26.25;14.03;;;;;;;1.76;39.25;100246.14;1793845;79;22285;-76
2021/01/16 06:29:57;;;;;;;26.48;15.63;;;;;;;1.76;39.35;100238.22;1756408;80;21634;-77
2021/01/16 06:32:26;;;;;;;26.00;13.25;;;;;;;1.78;39.46;100249.53;1769714;80;21093;-76
2021/01/16 06:35:10;;;;;;;22.35;13.20;;;;;;;1.79;39.44;100253.86;1777321;79;21117;-78
2021/01/16 06:37:49;;;;;;;23.67;13.32;;;;;;;1.79;39.31;100257.81;1788304;79;21442;-75
2021/01/16 06:40:33;;;;;;;24.25;11.85;;;;;;;1.80;39.23;100252.05;1779203;79;21877;-77
2021/01/16 06:43:05;;;;;;;22.67;11.78;;;;;;;1.80;39.36;100261.30;1771265;79;21473;-80
2021/01/16 06:45:33;;;;;;;20.30;10.53;;;;;;;1.78;39.19;100264.06;1751775;79;21140;-75
2021/01/16 06:48:03;;;;;;;16.73;9.70;;;;;;;1.79;39.18;100267.06;1789785;79;21171;-76
2021/01/16 06:50:35;;;;;;;16.25;9.25;;;;;;;1.77;39.09;100267.18;1788302;79;21377;-76
2021/01/16 06:53:04;;;;;;;14.05;8.08;;;;;;;1.78;39.02;100269.34;1761880;80;21791;-77
2021/01/16 06:55:32;;;;;;;19.35;10.25;;;;;;;1.81;38.96;100272.22;1754125;80;21185;-77
2021/01/16 06:58:18;;;;;;;15.95;9.50;;;;;;;1.81;38.84;100264.30;1758372;79;21251;-77
2021/01/16 07:00:57;;;;;;;15.10;9.65;;;;;;;1.75;38.89;100268.22;1755019;80;21127;-76
2021/01/16 07:03:26;;;;;;;15.43;8.93;;;;;;;1.64;38.81;100273.41;1784212;79;21460;-76
2021/01/16 07:05:56;;;;;;;17.98;9.55;;;;;;;1.57;38.86;100269.49;1801926;79;21809;-77
2021/01/16 07:08:24;;;;;;;16.67;9.08;;;;;;;1.49;38.67;100269.53;1769777;80;21216;-75
2021/01/16 07:10:52;;;;;;;17.45;9.53;;;;;;;1.41;38.60;100281.11;1761755;80;21196;-76
2021/01/16 07:13:20;;;;;;;14.63;8.33;;;;;;;1.35;38.56;100292.53;1754971;81;21472;-75
2021/01/16 07:15:48;;;;;;;14.83;8.85;;;;;;;1.31;38.45;100289.25;1754178;80;21123;-75
2021/01/16 07:18:16;;;;;;;16.20;8.78;;;;;;;1.24;38.09;100293.27;1785847;79;21489;-77
2021/01/16 07:20:44;;;;;;;15.68;9.15;;;;;;;1.14;38.00;100296.16;1723718;79;21550;-76
2021/01/16 07:23:11;;;;;;;16.15;9.23;;;;;;;1.04;37.83;100291.09;1759635;80;21164;-76
2021/01/16 07:25:39;;;;;;;15.08;9.18;;;;;;;0.90;37.76;100294.16;1762294;80;21159;-78
2021/01/16 07:28:07;;;;;;;13.60;8.30;;;;;;;0.85;37.72;100301.53;1775401;79;21525;-77
2021/01/16 07:30:35;;;;;;;16.80;10.20;;;;;;;0.78;37.63;100302.05;1736401;80;21647;-76
2021/01/16 07:33:04;;;;;;;18.05;10.05;;;;;;;0.69;37.65;100307.45;1749182;80;21185;-76
2021/01/16 07:35:32;;;;;;;14.53;8.53;;;;;;;0.61;37.59;100313.67;1779958;80;21237;-77
2021/01/16 07:38:00;;;;;;;14.28;7.97;;;;;;;0.52;37.64;100318.22;1762920;80;21198;-77
2021/01/16 07:40:29;;;;;;;14.87;7.75;;;;;;;0.42;37.77;100325.39;1802367;79;21216;-78
2021/01/16 07:42:59;;;;;;;14.23;7.65;;;;;;;0.37;37.71;100330.11;1808625;79;22223;-76
2021/01/16 07:45:33;;;;;;;14.55;8.00;;;;;;;0.33;37.60;100332.55;1784142;79;21710;-75
2021/01/16 07:48:05;;;;;;;12.78;7.37;;;;;;;0.31;37.56;100344.95;1770039;79;32826;-75
2021/01/16 07:50:35;;;;;;;11.12;6.12;;;;;;;0.30;37.56;100339.80;1788882;78;21196;-77
2021/01/16 07:53:06;;;;;;;10.80;6.55;;;;;;;0.27;37.42;100340.81;1762456;80;21260;-77
2021/01/16 07:55:44;;;;;;;11.20;6.30;;;;;;;0.23;37.40;100340.66;1764359;80;22407;-76
2021/01/16 07:58:35;;;;;;;12.23;6.72;;;;;;;0.20;37.32;100340.84;1758708;79;21176;-77
2021/01/16 08:01:27;;;;;;;13.28;7.12;;;;;;;0.19;37.33;100349.22;1765246;80;21545;-77
2021/01/16 08:04:10;;;;;;;10.43;6.05;;;;;;;0.17;37.38;100350.23;1783058;80;21109;-76
2021/01/16 08:06:55;;;;;;;13.95;6.40;;;;;;;0.18;37.18;100356.75;1843820;77;22723;-77
2021/01/16 08:09:32;;;;;;;11.25;6.50;;;;;;;0.12;37.34;100358.42;1822805;78;21184;-76
2021/01/16 08:12:01;;;;;;;12.43;7.28;;;;;;;0.09;37.37;100349.86;1791698;78;21435;-77
2021/01/16 08:14:32;;;;;;;14.23;7.87;;;;;;;0.05;37.30;100354.97;1795017;78;21537;-77
2021/01/16 08:17:01;;;;;;;12.90;6.80;;;;;;;0.03;37.22;100365.57;1801359;78;21120;-77
2021/01/16 08:19:36;;;;;;;12.10;7.08;;;;;;;0.01;37.29;100367.94;1809576;77;21433;-77
2021/01/16 08:22:03;;;;;;;12.73;6.80;;;;;;;-0.01;37.37;100364.06;1776892;78;21537;-76
2021/01/16 08:24:31;;;;;;;14.10;7.47;;;;;;;-0.02;37.42;100367.17;1754702;78;21804;-77
2021/01/16 08:27:01;;;;;;;13.00;7.58;;;;;;;0.01;37.24;100369.26;1793643;78;21421;-78
2021/01/16 08:29:33;;;;;;;12.35;7.00;;;;;;;0.00;37.08;100367.09;1822548;78;21659;-78
2021/01/16 08:32:12;;;;;;;11.15;7.10;;;;;;;-0.01;37.08;100366.22;1814580;77;21174;-77
2021/01/16 08:34:58;;;;;;;11.53;6.47;;;;;;;-0.02;36.99;100368.95;1815408;78;21105;-77
2021/01/16 08:37:38;;;;;;;13.93;7.53;;;;;;;-0.03;36.94;100368.12;1815323;78;21193;-77
2021/01/16 08:40:12;;;;;;;13.78;6.22;;;;;;;-0.06;37.22;100368.29;1809623;78;21627;-77
2021/01/16 08:42:53;;;;;;;17.62;9.35;;;;;;;-0.02;37.17;100365.01;1805584;78;21201;-78
2021/01/16 08:45:21;;;;;;;12.37;7.22;;;;;;;-0.01;37.30;100371.48;1811376;79;21185;-75
2021/01/16 08:47:53;;;;;;;11.73;6.65;;;;;;;0.03;37.29;100370.84;1817020;78;21164;-76
2021/01/16 08:50:24;;;;;;;15.50;7.30;;;;;;;0.06;36.90;100367.19;1815123;78;21915;-76
2021/01/16 08:52:53;;;;;;;14.38;8.08;;;;;;;0.09;36.87;100361.71;1811382;78;21179;-77
2021/01/16 08:55:29;;;;;;;11.90;7.35;;;;;;;0.11;36.67;100362.48;1809920;78;21189;-78
2021/01/16 08:58:08;;;;;;;12.73;7.60;;;;;;;0.15;36.54;100368.78;1807558;78;21098;-81
2021/01/16 09:00:37;;;;;;;13.13;8.03;;;;;;;0.19;36.38;100381.30;1831262;78;21342;-76
2021/01/16 09:03:13;;;;;;;13.45;7.75;;;;;;;0.24;36.45;100384.50;1830966;78;21202;-79
2021/01/16 09:05:41;;;;;;;16.65;8.65;;;;;;;0.27;36.35;100386.08;1809071;78;21548;-80
2021/01/16 09:08:29;;;;;;;14.78;7.72;;;;;;;0.25;36.30;100387.02;1811850;78;21565;-78
2021/01/16 09:11:13;;;;;;;10.32;6.47;;;;;;;0.28;36.17;100379.42;1755947;81;21581;-78
2021/01/16 09:13:43;;;;;;;15.95;8.25;;;;;;;0.28;35.89;100380.73;1787816;78;21188;-77
2021/01/16 09:16:29;;;;;;;14.23;7.55;;;;;;;0.28;35.80;100379.89;1812028;78;21760;-79
2021/01/16 09:18:57;;;;;;;15.10;8.00;;;;;;;0.33;35.78;100379.98;1820293;78;21706;-77
2021/01/16 09:21:27;;;;;;;13.50;8.10;;;;;;;0.29;35.58;100374.99;1817048;78;21660;-77
2021/01/16 09:23:55;;;;;;;15.00;7.78;;;;;;;0.24;35.71;100379.23;1831146;78;21164;-77
2021/01/16 09:26:25;;;;;;;16.35;8.88;;;;;;;0.23;35.75;100380.17;1827107;78;21386;-76
2021/01/16 09:28:56;;;;;;;13.95;8.05;;;;;;;0.23;35.72;100381.49;1802575;78;21244;-78
2021/01/16 09:31:39;;;;;;;15.08;8.80;;;;;;;0.22;35.58;100383.25;1811034;78;21128;-77
2021/01/16 09:34:17;;;;;;;15.53;8.08;;;;;;;0.23;35.62;100383.66;1816528;78;21211;-77
2021/01/16 09:36:49;;;;;;;12.65;7.25;;;;;;;0.28;35.76;100383.37;1796139;79;21584;-76
2021/01/16 09:39:27;;;;;;;14.35;7.75;;;;;;;0.28;35.62;100389.95;1812867;78;21433;-77
2021/01/16 09:42:03;;;;;;;18.20;9.33;;;;;;;0.24;35.67;100389.29;1819760;78;21219;-77
2021/01/16 09:44:46;;;;;;;12.53;7.45;;;;;;;0.24;35.71;100400.30;1805295;78;21203;-78
2021/01/16 09:47:32;;;;;;;14.20;8.25;;;;;;;0.25;35.73;100398.88;1800895;78;21177;-78
2021/01/16 09:50:06;;;;;;;15.95;8.50;;;;;;;0.29;35.78;100394.75;1815758;78;22206;-77
2021/01/16 09:52:34;;;;;;;14.18;7.20;;;;;;;0.31;35.67;100386.27;1812654;78;21192;-77
2021/01/16 09:55:03;;;;;;;13.95;7.90;;;;;;;0.30;35.58;100385.42;1810020;78;21372;-80
2021/01/16 09:57:38;;;;;;;16.48;8.45;;;;;;;0.30;35.63;100389.85;1800293;78;21655;-78
2021/01/16 10:00:28;;;;;;;14.78;7.55;;;;;;;0.35;35.59;100388.62;1805038;78;21212;-77
2021/01/16 10:03:03;;;;;;;18.02;9.30;;;;;;;0.36;35.74;100384.19;1808663;78;21109;-77
2021/01/16 10:05:40;;;;;;;19.20;10.00;;;;;;;0.34;35.90;100385.61;1808081;78;21686;-78
2021/01/16 10:08:09;;;;;;;14.47;8.25;;;;;;;0.44;35.97;100377.98;1831523;78;21133;-77
2021/01/16 10:10:47;;;;;;;13.40;7.65;;;;;;;0.51;36.09;100377.98;1832165;78;21203;-78
2021/01/16 10:13:30;;;;;;;16.45;9.40;;;;;;;0.57;35.95;100378.91;1808564;78;21172;-77
2021/01/16 10:16:12;;;;;;;20.17;10.98;;;;;;;0.63;35.89;100377.67;1806653;78;21414;-78
2021/01/16 10:18:41;;;;;;;22.87;11.08;;;;;;;0.62;35.90;100382.58;1809163;78;21113;-77
2021/01/16 10:21:11;;;;;;;15.78;9.00;;;;;;;0.74;35.71;100376.06;1805307;78;21192;-77
2021/01/16 10:23:42;;;;;;;16.20;8.70;;;;;;;0.70;34.93;100382.94;1798624;79;21128;-77
2021/01/16 10:26:17;;;;;;;14.13;6.75;;;;;;;0.72;34.33;100393.75;1794610;78;21191;-79
2021/01/16 10:28:55;;;;;;;15.65;8.38;;;;;;;0.81;33.79;100391.48;1812712;78;21702;-76
2021/01/16 10:31:24;;;;;;;12.00;6.70;;;;;;;0.86;33.66;100391.55;1807083;78;21546;-78
2021/01/16 10:33:53;;;;;;;13.22;7.62;;;;;;;0.94;33.26;100391.07;1810042;78;21348;-77
2021/01/16 10:36:21;;;;;;;14.55;7.12;;;;;;;0.96;33.18;100386.09;1789980;78;21143;-77
2021/01/16 10:38:52;;;;;;;14.85;8.43;;;;;;;1.01;32.97;100381.83;1774078;78;21112;-79
2021/01/16 10:41:34;;;;;;;13.85;7.78;;;;;;;1.05;32.97;100387.77;1831561;78;21623;-78
2021/01/16 10:44:10;;;;;;;16.73;8.63;;;;;;;1.08;32.54;100386.23;1823338;78;21449;-78
2021/01/16 10:46:47;;;;;;;14.15;8.75;;;;;;;1.10;32.43;100390.95;1807780;78;21266;-77
2021/01/16 10:49:23;;;;;;;;;;;;;;;1.11;32.40;100387.36;1804927;78;21192;-76
2021/01/16 10:52:01;;;;;;;14.87;7.92;;;;;;;1.10;32.15;100388.30;1804778;78;20289;-78
2021/01/16 10:54:29;;;;;;;16.27;7.75;;;;;;;1.09;31.97;100393.19;1801041;78;21094;-77
2021/01/16 10:57:02;;;;;;;15.38;8.50;;;;;;;1.10;31.81;100397.54;1804631;78;21102;-77
2021/01/16 10:59:35;;;;;;;17.98;8.63;;;;;;;1.08;31.68;100394.98;1811600;78;21353;-77
2021/01/16 11:02:13;;;;;;;16.42;8.95;;;;;;;1.06;31.59;100399.52;1827461;78;21108;-77
2021/01/16 11:04:43;;;;;;;18.70;8.08;;;;;;;1.06;31.14;100396.88;1817578;78;21679;-77
2021/01/16 11:07:12;;;;;;;17.77;9.75;;;;;;;1.03;31.05;100396.23;1821150;78;21457;-77
2021/01/16 11:09:42;;;;;;;13.75;7.03;;;;;;;0.92;30.63;100398.25;1830471;78;21101;-77
2021/01/16 11:12:10;;;;;;;14.53;8.58;;;;;;;0.85;30.60;100396.94;1814185;78;21907;-77
2021/01/16 11:14:43;;;;;;;15.35;8.15;;;;;;;0.84;30.95;100394.77;1799280;79;21117;-76
2021/01/16 11:17:11;;;;;;;17.07;9.13;;;;;;;0.85;30.65;100392.98;1807969;78;21116;-77
2021/01/16 11:19:42;;;;;;;17.30;8.50;;;;;;;0.84;30.92;100393.93;1801130;78;21126;-78
2021/01/16 11:22:14;;;;;;;14.68;8.48;;;;;;;0.86;30.53;100390.23;1805024;78;21183;-78
2021/01/16 11:24:57;;;;;;;21.30;9.03;;;;;;;0.86;30.53;100390.23;1803303;78;21199;-79
2021/01/16 11:27:29;;;;;;;17.25;8.50;;;;;;;0.89;30.54;100391.37;1811095;78;21155;-78
2021/01/16 11:30:11;;;;;;;18.57;9.55;;;;;;;0.91;30.11;100397.84;1809427;78;21360;-77
2021/01/16 11:32:41;;;;;;;15.03;8.95;;;;;;;0.93;29.87;100395.98;1795446;79;21594;-78
2021/01/16 11:35:14;;;;;;;14.68;7.40;;;;;;;0.90;29.82;100403.59;1800225;78;21616;-77
2021/01/16 11:37:56;;;;;;;15.05;8.33;;;;;;;0.87;29.61;100411.73;1797472;79;21282;-77
2021/01/16 11:40:32;;;;;;;11.28;6.45;;;;;;;0.83;29.31;100400.16;1812663;78;21569;-77
2021/01/16 11:43:10;;;;;;;16.57;8.93;;;;;;;0.72;29.50;100400.34;1815352;78;21120;-78
2021/01/16 11:45:38;;;;;;;20.02;9.93;;;;;;;0.66;29.52;100408.64;1826509;78;21129;-77